Dunwoody, Georgia
Current Conditions -  °F | °C
As of 9:53 AM on Friday 31 Oct 2014 (Local Time) from KPDK Reporting Station
Broken Clouds Broken Clouds  
Wind Chill: 51°   Ceiling: 11000
Heat Index: 51°   Visibility: 10mi
Dew Point: 42°   Wind: 6mph
Humidity: 71%   Direction: 340°NNW
Pressure: 29.95"   Gusts: NA
Location:  33.95°N, 84.33°W
Report Text: KPDK 311353Z 34005KT 10SM BKN110 11/06 A2995 RMK AO2 SLP145 T01060056
Loading
Personal Weather Stations






























Interactive Weather Map
Tropical Storm Tracking
New forecast layout! Learn more

10-Day Weather Forecast

Advertisements
Track Severe Weather on mobile